sensor_id;sensor_type;location;lat;lon;timestamp;P1;durP1;ratioP1;P2;durP2;ratioP2
6523;SDS011;3295;38.928;-77.052;2022-08-25T00:02:07;6.93;;;4.70;;
6523;SDS011;3295;38.928;-77.052;2022-08-25T00:04:36;7.27;;;5.27;;
6523;SDS011;3295;38.928;-77.052;2022-08-25T00:07:04;7.00;;;4.93;;
6523;SDS011;3295;38.928;-77.052;2022-08-25T00:09:33;6.80;;;4.93;;
6523;SDS011;3295;38.928;-77.052;2022-08-25T00:12:04;7.27;;;5.30;;
6523;SDS011;3295;38.928;-77.052;2022-08-25T00:14:34;6.53;;;5.00;;
6523;SDS011;3295;38.928;-77.052;2022-08-25T00:17:04;9.03;;;5.50;;
6523;SDS011;3295;38.928;-77.052;2022-08-25T00:19:34;7.37;;;5.20;;
6523;SDS011;3295;38.928;-77.052;2022-08-25T00:22:03;7.43;;;5.37;;
6523;SDS011;3295;38.928;-77.052;2022-08-25T00:24:32;8.33;;;5.67;;
6523;SDS011;3295;38.928;-77.052;2022-08-25T00:27:00;10.40;;;5.00;;
6523;SDS011;3295;38.928;-77.052;2022-08-25T00:29:28;7.43;;;5.10;;
6523;SDS011;3295;38.928;-77.052;2022-08-25T00:31:58;10.97;;;5.90;;
6523;SDS011;3295;38.928;-77.052;2022-08-25T00:34:28;7.77;;;5.53;;
6523;SDS011;3295;38.928;-77.052;2022-08-25T00:37:00;9.67;;;5.47;;
6523;SDS011;3295;38.928;-77.052;2022-08-25T00:39:29;9.90;;;5.97;;
6523;SDS011;3295;38.928;-77.052;2022-08-25T00:41:57;8.73;;;5.60;;
6523;SDS011;3295;38.928;-77.052;2022-08-25T00:44:25;10.07;;;5.80;;
6523;SDS011;3295;38.928;-77.052;2022-08-25T00:46:56;10.20;;;5.80;;
6523;SDS011;3295;38.928;-77.052;2022-08-25T00:49:26;9.23;;;5.63;;
6523;SDS011;3295;38.928;-77.052;2022-08-25T00:51:58;8.63;;;5.80;;
6523;SDS011;3295;38.928;-77.052;2022-08-25T00:54:30;10.57;;;6.40;;
6523;SDS011;3295;38.928;-77.052;2022-08-25T00:57:04;10.17;;;5.90;;
6523;SDS011;3295;38.928;-77.052;2022-08-25T00:59:37;9.87;;;5.97;;
6523;SDS011;3295;38.928;-77.052;2022-08-25T01:02:05;9.73;;;6.23;;
6523;SDS011;3295;38.928;-77.052;2022-08-25T01:04:34;9.07;;;6.00;;
6523;SDS011;3295;38.928;-77.052;2022-08-25T01:07:06;9.17;;;5.80;;
6523;SDS011;3295;38.928;-77.052;2022-08-25T01:09:35;9.50;;;5.93;;
6523;SDS011;3295;38.928;-77.052;2022-08-25T01:12:04;9.33;;;6.10;;
6523;SDS011;3295;38.928;-77.052;2022-08-25T01:14:32;8.20;;;5.77;;
6523;SDS011;3295;38.928;-77.052;2022-08-25T01:17:04;8.73;;;6.13;;
6523;SDS011;3295;38.928;-77.052;2022-08-25T01:19:31;8.53;;;5.43;;
6523;SDS011;3295;38.928;-77.052;2022-08-25T01:22:01;10.10;;;5.80;;
6523;SDS011;3295;38.928;-77.052;2022-08-25T01:24:35;10.20;;;6.20;;
6523;SDS011;3295;38.928;-77.052;2022-08-25T01:27:07;7.93;;;5.50;;
6523;SDS011;3295;38.928;-77.052;2022-08-25T01:29:35;8.73;;;5.80;;
6523;SDS011;3295;38.928;-77.052;2022-08-25T01:32:04;10.67;;;5.67;;
6523;SDS011;3295;38.928;-77.052;2022-08-25T01:34:37;7.93;;;5.63;;
6523;SDS011;3295;38.928;-77.052;2022-08-25T01:37:08;10.37;;;6.30;;
6523;SDS011;3295;38.928;-77.052;2022-08-25T01:39:36;9.17;;;5.70;;
6523;SDS011;3295;38.928;-77.052;2022-08-25T01:42:08;10.17;;;6.13;;
6523;SDS011;3295;38.928;-77.052;2022-08-25T01:44:44;9.60;;;6.17;;
6523;SDS011;3295;38.928;-77.052;2022-08-25T01:47:13;9.97;;;6.37;;
6523;SDS011;3295;38.928;-77.052;2022-08-25T01:49:41;8.93;;;6.10;;
6523;SDS011;3295;38.928;-77.052;2022-08-25T01:52:14;9.43;;;6.00;;
6523;SDS011;3295;38.928;-77.052;2022-08-25T01:54:45;10.23;;;6.53;;
6523;SDS011;3295;38.928;-77.052;2022-08-25T01:57:13;10.30;;;5.93;;
6523;SDS011;3295;38.928;-77.052;2022-08-25T01:59:41;9.70;;;6.03;;
6523;SDS011;3295;38.928;-77.052;2022-08-25T02:02:09;7.87;;;5.70;;
6523;SDS011;3295;38.928;-77.052;2022-08-25T02:04:37;8.77;;;6.13;;
6523;SDS011;3295;38.928;-77.052;2022-08-25T02:07:05;9.97;;;6.60;;
6523;SDS011;3295;38.928;-77.052;2022-08-25T02:09:36;8.77;;;5.90;;
6523;SDS011;3295;38.928;-77.052;2022-08-25T02:12:04;11.03;;;6.43;;
6523;SDS011;3295;38.928;-77.052;2022-08-25T02:14:33;8.47;;;5.97;;
6523;SDS011;3295;38.928;-77.052;2022-08-25T02:17:02;10.07;;;6.23;;
6523;SDS011;3295;38.928;-77.052;2022-08-25T02:19:30;10.80;;;6.67;;
6523;SDS011;3295;38.928;-77.052;2022-08-25T02:21:58;9.50;;;6.20;;
6523;SDS011;3295;38.928;-77.052;2022-08-25T02:24:26;9.37;;;6.23;;
6523;SDS011;3295;38.928;-77.052;2022-08-25T02:26:56;8.20;;;5.93;;
6523;SDS011;3295;38.928;-77.052;2022-08-25T02:29:24;10.27;;;6.50;;
6523;SDS011;3295;38.928;-77.052;2022-08-25T02:31:52;10.00;;;6.17;;
6523;SDS011;3295;38.928;-77.052;2022-08-25T02:34:19;9.13;;;6.57;;
6523;SDS011;3295;38.928;-77.052;2022-08-25T02:36:47;11.70;;;6.63;;
6523;SDS011;3295;38.928;-77.052;2022-08-25T02:39:15;8.50;;;5.87;;
6523;SDS011;3295;38.928;-77.052;2022-08-25T02:41:43;10.37;;;6.73;;
6523;SDS011;3295;38.928;-77.052;2022-08-25T02:44:12;9.33;;;6.50;;
6523;SDS011;3295;38.928;-77.052;2022-08-25T02:46:40;8.20;;;5.73;;
6523;SDS011;3295;38.928;-77.052;2022-08-25T02:49:08;13.77;;;6.60;;
6523;SDS011;3295;38.928;-77.052;2022-08-25T02:51:35;10.13;;;6.47;;
6523;SDS011;3295;38.928;-77.052;2022-08-25T02:54:04;11.57;;;7.03;;
6523;SDS011;3295;38.928;-77.052;2022-08-25T02:56:32;10.43;;;6.63;;
6523;SDS011;3295;38.928;-77.052;2022-08-25T02:59:00;9.57;;;6.53;;
6523;SDS011;3295;38.928;-77.052;2022-08-25T03:01:30;12.37;;;6.63;;
6523;SDS011;3295;38.928;-77.052;2022-08-25T03:03:58;10.63;;;6.63;;
6523;SDS011;3295;38.928;-77.052;2022-08-25T03:06:27;10.80;;;6.00;;
6523;SDS011;3295;38.928;-77.052;2022-08-25T03:08:55;10.90;;;6.37;;
6523;SDS011;3295;38.928;-77.052;2022-08-25T03:11:23;9.17;;;6.17;;
6523;SDS011;3295;38.928;-77.052;2022-08-25T03:13:51;10.70;;;6.33;;
6523;SDS011;3295;38.928;-77.052;2022-08-25T03:16:19;9.27;;;6.33;;
6523;SDS011;3295;38.928;-77.052;2022-08-25T03:18:48;10.83;;;6.90;;
6523;SDS011;3295;38.928;-77.052;2022-08-25T03:21:16;10.67;;;5.83;;
6523;SDS011;3295;38.928;-77.052;2022-08-25T03:23:45;8.57;;;6.30;;
6523;SDS011;3295;38.928;-77.052;2022-08-25T03:26:13;8.63;;;6.07;;
6523;SDS011;3295;38.928;-77.052;2022-08-25T03:28:59;9.83;;;6.33;;
6523;SDS011;3295;38.928;-77.052;2022-08-25T03:31:29;10.90;;;6.47;;
6523;SDS011;3295;38.928;-77.052;2022-08-25T03:33:59;10.17;;;6.63;;
6523;SDS011;3295;38.928;-77.052;2022-08-25T03:36:27;9.67;;;5.97;;
6523;SDS011;3295;38.928;-77.052;2022-08-25T03:38:54;8.30;;;6.20;;
6523;SDS011;3295;38.928;-77.052;2022-08-25T03:41:23;11.23;;;6.53;;
6523;SDS011;3295;38.928;-77.052;2022-08-25T03:43:53;10.00;;;6.13;;
6523;SDS011;3295;38.928;-77.052;2022-08-25T03:46:21;11.53;;;6.73;;
6523;SDS011;3295;38.928;-77.052;2022-08-25T03:48:51;9.73;;;6.77;;
6523;SDS011;3295;38.928;-77.052;2022-08-25T03:51:21;9.97;;;6.50;;
6523;SDS011;3295;38.928;-77.052;2022-08-25T03:53:50;9.77;;;6.47;;
6523;SDS011;3295;38.928;-77.052;2022-08-25T03:56:18;10.80;;;6.70;;
6523;SDS011;3295;38.928;-77.052;2022-08-25T03:58:46;14.03;;;7.00;;
6523;SDS011;3295;38.928;-77.052;2022-08-25T04:01:13;11.97;;;6.67;;
6523;SDS011;3295;38.928;-77.052;2022-08-25T04:03:42;10.87;;;6.63;;
6523;SDS011;3295;38.928;-77.052;2022-08-25T04:06:10;10.13;;;6.47;;
6523;SDS011;3295;38.928;-77.052;2022-08-25T04:08:40;10.53;;;7.00;;
6523;SDS011;3295;38.928;-77.052;2022-08-25T04:11:08;10.70;;;7.00;;
6523;SDS011;3295;38.928;-77.052;2022-08-25T04:13:37;10.43;;;6.80;;
6523;SDS011;3295;38.928;-77.052;2022-08-25T04:16:09;10.97;;;6.67;;
6523;SDS011;3295;38.928;-77.052;2022-08-25T04:18:38;9.93;;;6.40;;
6523;SDS011;3295;38.928;-77.052;2022-08-25T04:21:06;11.27;;;6.90;;
6523;SDS011;3295;38.928;-77.052;2022-08-25T04:23:35;8.83;;;6.50;;
6523;SDS011;3295;38.928;-77.052;2022-08-25T04:26:09;11.67;;;7.10;;
6523;SDS011;3295;38.928;-77.052;2022-08-25T04:28:37;11.10;;;6.90;;
6523;SDS011;3295;38.928;-77.052;2022-08-25T04:31:06;10.63;;;6.67;;
6523;SDS011;3295;38.928;-77.052;2022-08-25T04:33:34;12.07;;;6.97;;
6523;SDS011;3295;38.928;-77.052;2022-08-25T04:36:02;10.57;;;6.70;;
6523;SDS011;3295;38.928;-77.052;2022-08-25T04:38:33;11.30;;;7.10;;
6523;SDS011;3295;38.928;-77.052;2022-08-25T04:41:13;10.20;;;6.50;;
6523;SDS011;3295;38.928;-77.052;2022-08-25T04:43:42;11.20;;;6.93;;
6523;SDS011;3295;38.928;-77.052;2022-08-25T04:46:12;13.73;;;7.33;;
6523;SDS011;3295;38.928;-77.052;2022-08-25T04:48:41;12.90;;;7.37;;
6523;SDS011;3295;38.928;-77.052;2022-08-25T04:51:09;11.23;;;6.90;;
6523;SDS011;3295;38.928;-77.052;2022-08-25T04:53:39;10.80;;;6.80;;
6523;SDS011;3295;38.928;-77.052;2022-08-25T04:56:23;12.70;;;7.60;;
6523;SDS011;3295;38.928;-77.052;2022-08-25T04:58:54;11.33;;;7.10;;
6523;SDS011;3295;38.928;-77.052;2022-08-25T05:01:25;12.43;;;7.10;;
6523;SDS011;3295;38.928;-77.052;2022-08-25T05:03:54;10.57;;;6.83;;
6523;SDS011;3295;38.928;-77.052;2022-08-25T05:06:23;13.00;;;7.27;;
6523;SDS011;3295;38.928;-77.052;2022-08-25T05:08:51;11.77;;;6.87;;
6523;SDS011;3295;38.928;-77.052;2022-08-25T05:11:20;10.27;;;7.10;;
6523;SDS011;3295;38.928;-77.052;2022-08-25T05:13:50;12.03;;;6.83;;
6523;SDS011;3295;38.928;-77.052;2022-08-25T05:16:19;12.87;;;7.00;;
6523;SDS011;3295;38.928;-77.052;2022-08-25T05:18:48;11.30;;;6.80;;
6523;SDS011;3295;38.928;-77.052;2022-08-25T05:21:18;9.77;;;7.00;;
6523;SDS011;3295;38.928;-77.052;2022-08-25T05:23:47;9.60;;;6.33;;
6523;SDS011;3295;38.928;-77.052;2022-08-25T05:26:16;11.43;;;6.97;;
6523;SDS011;3295;38.928;-77.052;2022-08-25T05:28:48;9.33;;;7.07;;
6523;SDS011;3295;38.928;-77.052;2022-08-25T05:31:18;10.90;;;7.20;;
6523;SDS011;3295;38.928;-77.052;2022-08-25T05:33:47;10.73;;;6.87;;
6523;SDS011;3295;38.928;-77.052;2022-08-25T05:36:15;11.97;;;7.53;;
6523;SDS011;3295;38.928;-77.052;2022-08-25T05:38:44;12.40;;;8.00;;
6523;SDS011;3295;38.928;-77.052;2022-08-25T05:41:13;11.50;;;7.47;;
6523;SDS011;3295;38.928;-77.052;2022-08-25T05:43:42;13.03;;;7.50;;
6523;SDS011;3295;38.928;-77.052;2022-08-25T05:46:12;11.27;;;7.47;;
6523;SDS011;3295;38.928;-77.052;2022-08-25T05:48:40;14.50;;;7.40;;
6523;SDS011;3295;38.928;-77.052;2022-08-25T05:51:09;13.47;;;7.00;;
6523;SDS011;3295;38.928;-77.052;2022-08-25T05:53:37;15.10;;;7.50;;
6523;SDS011;3295;38.928;-77.052;2022-08-25T05:56:06;10.50;;;7.20;;
6523;SDS011;3295;38.928;-77.052;2022-08-25T05:58:35;11.77;;;7.30;;
6523;SDS011;3295;38.928;-77.052;2022-08-25T06:01:03;17.00;;;7.27;;
6523;SDS011;3295;38.928;-77.052;2022-08-25T06:03:46;11.67;;;7.30;;
6523;SDS011;3295;38.928;-77.052;2022-08-25T06:06:15;13.47;;;7.60;;
6523;SDS011;3295;38.928;-77.052;2022-08-25T06:08:43;12.60;;;6.77;;
6523;SDS011;3295;38.928;-77.052;2022-08-25T06:11:11;11.27;;;7.47;;
6523;SDS011;3295;38.928;-77.052;2022-08-25T06:13:40;11.40;;;7.20;;
6523;SDS011;3295;38.928;-77.052;2022-08-25T06:16:08;10.67;;;7.27;;
6523;SDS011;3295;38.928;-77.052;2022-08-25T06:18:36;12.60;;;7.93;;
6523;SDS011;3295;38.928;-77.052;2022-08-25T06:21:09;12.10;;;7.77;;
6523;SDS011;3295;38.928;-77.052;2022-08-25T06:23:38;11.77;;;6.97;;
6523;SDS011;3295;38.928;-77.052;2022-08-25T06:26:06;11.03;;;7.17;;
6523;SDS011;3295;38.928;-77.052;2022-08-25T06:28:36;11.30;;;7.40;;
6523;SDS011;3295;38.928;-77.052;2022-08-25T06:31:04;11.83;;;7.87;;
6523;SDS011;3295;38.928;-77.052;2022-08-25T06:33:32;10.50;;;7.50;;
6523;SDS011;3295;38.928;-77.052;2022-08-25T06:36:00;13.23;;;7.53;;
6523;SDS011;3295;38.928;-77.052;2022-08-25T06:38:29;11.63;;;6.83;;
6523;SDS011;3295;38.928;-77.052;2022-08-25T06:40:57;11.47;;;7.60;;
6523;SDS011;3295;38.928;-77.052;2022-08-25T06:43:27;12.30;;;7.40;;
6523;SDS011;3295;38.928;-77.052;2022-08-25T06:45:55;10.90;;;7.40;;
6523;SDS011;3295;38.928;-77.052;2022-08-25T06:48:23;12.50;;;7.97;;
6523;SDS011;3295;38.928;-77.052;2022-08-25T06:50:50;11.50;;;7.77;;
6523;SDS011;3295;38.928;-77.052;2022-08-25T06:53:18;15.77;;;7.07;;
6523;SDS011;3295;38.928;-77.052;2022-08-25T06:55:55;11.10;;;7.17;;
6523;SDS011;3295;38.928;-77.052;2022-08-25T06:58:23;12.13;;;7.57;;
6523;SDS011;3295;38.928;-77.052;2022-08-25T07:00:51;11.40;;;7.43;;
6523;SDS011;3295;38.928;-77.052;2022-08-25T07:03:19;12.80;;;7.27;;
6523;SDS011;3295;38.928;-77.052;2022-08-25T07:05:49;11.17;;;7.23;;
6523;SDS011;3295;38.928;-77.052;2022-08-25T07:08:18;11.37;;;7.60;;
6523;SDS011;3295;38.928;-77.052;2022-08-25T07:10:46;12.20;;;7.87;;
6523;SDS011;3295;38.928;-77.052;2022-08-25T07:13:15;9.93;;;6.73;;
6523;SDS011;3295;38.928;-77.052;2022-08-25T07:15:43;11.33;;;7.07;;
6523;SDS011;3295;38.928;-77.052;2022-08-25T07:18:11;13.03;;;7.17;;
6523;SDS011;3295;38.928;-77.052;2022-08-25T07:20:38;11.37;;;7.57;;
6523;SDS011;3295;38.928;-77.052;2022-08-25T07:23:06;13.03;;;7.40;;
6523;SDS011;3295;38.928;-77.052;2022-08-25T07:25:34;10.57;;;7.03;;
6523;SDS011;3295;38.928;-77.052;2022-08-25T07:28:02;11.93;;;7.33;;
6523;SDS011;3295;38.928;-77.052;2022-08-25T07:30:32;10.60;;;7.07;;
6523;SDS011;3295;38.928;-77.052;2022-08-25T07:32:59;12.40;;;7.30;;
6523;SDS011;3295;38.928;-77.052;2022-08-25T07:35:27;13.13;;;7.37;;
6523;SDS011;3295;38.928;-77.052;2022-08-25T07:37:56;11.57;;;6.93;;
6523;SDS011;3295;38.928;-77.052;2022-08-25T07:40:26;13.73;;;7.03;;
6523;SDS011;3295;38.928;-77.052;2022-08-25T07:42:57;11.70;;;7.17;;
6523;SDS011;3295;38.928;-77.052;2022-08-25T07:45:29;13.03;;;6.83;;
6523;SDS011;3295;38.928;-77.052;2022-08-25T07:48:02;11.60;;;7.20;;
6523;SDS011;3295;38.928;-77.052;2022-08-25T07:50:36;12.13;;;7.13;;
6523;SDS011;3295;38.928;-77.052;2022-08-25T07:53:06;11.77;;;7.27;;
6523;SDS011;3295;38.928;-77.052;2022-08-25T07:55:35;13.93;;;7.07;;
6523;SDS011;3295;38.928;-77.052;2022-08-25T07:58:03;12.23;;;7.47;;
6523;SDS011;3295;38.928;-77.052;2022-08-25T08:00:34;11.47;;;7.47;;
6523;SDS011;3295;38.928;-77.052;2022-08-25T08:03:04;11.33;;;7.43;;
6523;SDS011;3295;38.928;-77.052;2022-08-25T08:05:33;11.77;;;7.73;;
6523;SDS011;3295;38.928;-77.052;2022-08-25T08:08:02;12.60;;;7.07;;
6523;SDS011;3295;38.928;-77.052;2022-08-25T08:10:30;12.03;;;7.40;;
6523;SDS011;3295;38.928;-77.052;2022-08-25T08:12:58;12.10;;;6.97;;
6523;SDS011;3295;38.928;-77.052;2022-08-25T08:15:26;11.73;;;7.10;;
6523;SDS011;3295;38.928;-77.052;2022-08-25T08:17:55;10.97;;;6.93;;
6523;SDS011;3295;38.928;-77.052;2022-08-25T08:20:23;10.90;;;6.97;;
6523;SDS011;3295;38.928;-77.052;2022-08-25T08:22:51;12.03;;;7.40;;
6523;SDS011;3295;38.928;-77.052;2022-08-25T08:25:18;11.53;;;7.27;;
6523;SDS011;3295;38.928;-77.052;2022-08-25T08:27:46;11.57;;;7.00;;
6523;SDS011;3295;38.928;-77.052;2022-08-25T08:30:15;12.90;;;7.13;;
6523;SDS011;3295;38.928;-77.052;2022-08-25T08:32:42;15.47;;;7.63;;
6523;SDS011;3295;38.928;-77.052;2022-08-25T08:35:12;11.20;;;7.50;;
6523;SDS011;3295;38.928;-77.052;2022-08-25T08:37:41;14.40;;;7.27;;
6523;SDS011;3295;38.928;-77.052;2022-08-25T08:40:10;11.87;;;7.47;;
6523;SDS011;3295;38.928;-77.052;2022-08-25T08:42:45;13.37;;;7.70;;
6523;SDS011;3295;38.928;-77.052;2022-08-25T08:45:29;10.50;;;7.17;;
6523;SDS011;3295;38.928;-77.052;2022-08-25T08:48:08;12.17;;;7.40;;
6523;SDS011;3295;38.928;-77.052;2022-08-25T08:50:57;11.70;;;7.33;;
6523;SDS011;3295;38.928;-77.052;2022-08-25T08:53:36;13.03;;;7.63;;
6523;SDS011;3295;38.928;-77.052;2022-08-25T08:56:18;12.43;;;7.37;;
6523;SDS011;3295;38.928;-77.052;2022-08-25T08:58:49;14.20;;;8.13;;
6523;SDS011;3295;38.928;-77.052;2022-08-25T09:01:22;11.83;;;7.17;;
6523;SDS011;3295;38.928;-77.052;2022-08-25T09:03:55;12.43;;;7.80;;
6523;SDS011;3295;38.928;-77.052;2022-08-25T09:06:29;11.57;;;7.33;;
6523;SDS011;3295;38.928;-77.052;2022-08-25T09:09:02;10.60;;;7.20;;
6523;SDS011;3295;38.928;-77.052;2022-08-25T09:11:40;14.10;;;7.50;;
6523;SDS011;3295;38.928;-77.052;2022-08-25T09:14:20;10.97;;;7.20;;
6523;SDS011;3295;38.928;-77.052;2022-08-25T09:17:00;11.37;;;7.30;;
6523;SDS011;3295;38.928;-77.052;2022-08-25T09:19:32;12.03;;;7.33;;
6523;SDS011;3295;38.928;-77.052;2022-08-25T09:22:13;13.97;;;7.93;;
6523;SDS011;3295;38.928;-77.052;2022-08-25T09:24:51;12.23;;;7.20;;
6523;SDS011;3295;38.928;-77.052;2022-08-25T09:27:24;12.83;;;7.40;;
6523;SDS011;3295;38.928;-77.052;2022-08-25T09:30:00;12.37;;;7.43;;
6523;SDS011;3295;38.928;-77.052;2022-08-25T09:32:33;13.40;;;7.70;;
6523;SDS011;3295;38.928;-77.052;2022-08-25T09:35:05;12.47;;;7.13;;
6523;SDS011;3295;38.928;-77.052;2022-08-25T09:37:37;13.53;;;7.37;;
6523;SDS011;3295;38.928;-77.052;2022-08-25T09:40:06;10.20;;;7.10;;
6523;SDS011;3295;38.928;-77.052;2022-08-25T09:42:47;12.43;;;7.77;;
6523;SDS011;3295;38.928;-77.052;2022-08-25T09:45:29;12.47;;;7.90;;
6523;SDS011;3295;38.928;-77.052;2022-08-25T09:48:00;13.83;;;8.03;;
6523;SDS011;3295;38.928;-77.052;2022-08-25T09:50:29;11.73;;;7.87;;
6523;SDS011;3295;38.928;-77.052;2022-08-25T09:53:11;14.90;;;7.27;;
6523;SDS011;3295;38.928;-77.052;2022-08-25T09:55:40;11.33;;;7.37;;
6523;SDS011;3295;38.928;-77.052;2022-08-25T09:58:14;11.90;;;7.67;;
6523;SDS011;3295;38.928;-77.052;2022-08-25T10:00:47;10.23;;;7.23;;
6523;SDS011;3295;38.928;-77.052;2022-08-25T10:03:52;11.20;;;7.50;;
6523;SDS011;3295;38.928;-77.052;2022-08-25T10:06:32;12.43;;;7.33;;
6523;SDS011;3295;38.928;-77.052;2022-08-25T10:09:05;13.60;;;7.80;;
6523;SDS011;3295;38.928;-77.052;2022-08-25T10:11:40;11.37;;;7.57;;
6523;SDS011;3295;38.928;-77.052;2022-08-25T10:14:17;12.20;;;7.70;;
6523;SDS011;3295;38.928;-77.052;2022-08-25T10:16:46;11.10;;;7.47;;
6523;SDS011;3295;38.928;-77.052;2022-08-25T10:19:22;12.63;;;7.00;;
6523;SDS011;3295;38.928;-77.052;2022-08-25T10:22:02;11.87;;;7.50;;
6523;SDS011;3295;38.928;-77.052;2022-08-25T10:24:34;12.50;;;7.80;;
6523;SDS011;3295;38.928;-77.052;2022-08-25T10:27:05;11.23;;;7.30;;
6523;SDS011;3295;38.928;-77.052;2022-08-25T10:29:50;12.03;;;7.43;;
6523;SDS011;3295;38.928;-77.052;2022-08-25T10:32:42;13.07;;;7.33;;
6523;SDS011;3295;38.928;-77.052;2022-08-25T10:35:18;11.27;;;7.30;;
6523;SDS011;3295;38.928;-77.052;2022-08-25T10:37:52;12.03;;;7.17;;
6523;SDS011;3295;38.928;-77.052;2022-08-25T10:40:36;12.53;;;7.80;;
6523;SDS011;3295;38.928;-77.052;2022-08-25T10:43:12;11.67;;;7.30;;
6523;SDS011;3295;38.928;-77.052;2022-08-25T10:45:52;12.93;;;7.07;;
6523;SDS011;3295;38.928;-77.052;2022-08-25T10:48:33;11.60;;;6.97;;
6523;SDS011;3295;38.928;-77.052;2022-08-25T10:51:24;13.37;;;7.63;;
6523;SDS011;3295;38.928;-77.052;2022-08-25T10:54:14;16.73;;;8.00;;
6523;SDS011;3295;38.928;-77.052;2022-08-25T10:56:57;12.07;;;7.33;;
6523;SDS011;3295;38.928;-77.052;2022-08-25T10:59:44;11.73;;;7.73;;
6523;SDS011;3295;38.928;-77.052;2022-08-25T11:05:51;15.47;;;8.40;;
6523;SDS011;3295;38.928;-77.052;2022-08-25T11:08:26;14.03;;;7.40;;
6523;SDS011;3295;38.928;-77.052;2022-08-25T11:11:01;12.03;;;7.80;;
6523;SDS011;3295;38.928;-77.052;2022-08-25T11:13:36;14.73;;;7.63;;
6523;SDS011;3295;38.928;-77.052;2022-08-25T11:16:08;11.53;;;7.47;;
6523;SDS011;3295;38.928;-77.052;2022-08-25T11:18:41;11.57;;;7.70;;
6523;SDS011;3295;38.928;-77.052;2022-08-25T11:21:13;12.63;;;7.67;;
6523;SDS011;3295;38.928;-77.052;2022-08-25T11:23:51;12.70;;;7.50;;
6523;SDS011;3295;38.928;-77.052;2022-08-25T11:26:25;13.10;;;7.87;;
6523;SDS011;3295;38.928;-77.052;2022-08-25T11:29:02;11.90;;;7.53;;
6523;SDS011;3295;38.928;-77.052;2022-08-25T11:31:36;12.00;;;7.73;;
6523;SDS011;3295;38.928;-77.052;2022-08-25T11:34:07;14.07;;;7.73;;
6523;SDS011;3295;38.928;-77.052;2022-08-25T11:36:38;11.67;;;7.33;;
6523;SDS011;3295;38.928;-77.052;2022-08-25T11:39:11;12.93;;;7.53;;
6523;SDS011;3295;38.928;-77.052;2022-08-25T11:41:51;11.27;;;7.00;;
6523;SDS011;3295;38.928;-77.052;2022-08-25T11:44:42;12.50;;;7.60;;
6523;SDS011;3295;38.928;-77.052;2022-08-25T11:47:26;12.27;;;7.27;;
6523;SDS011;3295;38.928;-77.052;2022-08-25T11:50:08;12.77;;;7.63;;
6523;SDS011;3295;38.928;-77.052;2022-08-25T11:52:52;13.73;;;7.90;;
6523;SDS011;3295;38.928;-77.052;2022-08-25T11:55:21;11.83;;;7.93;;
6523;SDS011;3295;38.928;-77.052;2022-08-25T12:01:13;13.47;;;8.13;;
6523;SDS011;3295;38.928;-77.052;2022-08-25T12:04:32;12.97;;;7.60;;
6523;SDS011;3295;38.928;-77.052;2022-08-25T12:07:25;12.60;;;7.70;;
6523;SDS011;3295;38.928;-77.052;2022-08-25T12:10:15;12.83;;;7.87;;
6523;SDS011;3295;38.928;-77.052;2022-08-25T12:12:56;13.13;;;7.90;;
6523;SDS011;3295;38.928;-77.052;2022-08-25T12:15:57;12.67;;;7.40;;
6523;SDS011;3295;38.928;-77.052;2022-08-25T12:18:40;11.90;;;8.00;;
6523;SDS011;3295;38.928;-77.052;2022-08-25T12:21:11;12.33;;;7.50;;
6523;SDS011;3295;38.928;-77.052;2022-08-25T12:24:08;12.33;;;7.63;;
6523;SDS011;3295;38.928;-77.052;2022-08-25T12:26:41;12.77;;;8.07;;
6523;SDS011;3295;38.928;-77.052;2022-08-25T12:29:15;11.47;;;7.87;;
6523;SDS011;3295;38.928;-77.052;2022-08-25T12:34:48;12.17;;;8.07;;
6523;SDS011;3295;38.928;-77.052;2022-08-25T12:40:35;15.80;;;8.30;;
6523;SDS011;3295;38.928;-77.052;2022-08-25T12:43:06;14.77;;;8.90;;
6523;SDS011;3295;38.928;-77.052;2022-08-25T12:45:41;12.93;;;8.40;;
6523;SDS011;3295;38.928;-77.052;2022-08-25T12:51:15;13.67;;;8.67;;
6523;SDS011;3295;38.928;-77.052;2022-08-25T12:53:47;13.40;;;8.17;;
6523;SDS011;3295;38.928;-77.052;2022-08-25T12:56:19;12.10;;;7.70;;
6523;SDS011;3295;38.928;-77.052;2022-08-25T12:58:54;12.80;;;7.90;;
6523;SDS011;3295;38.928;-77.052;2022-08-25T13:01:42;11.00;;;7.57;;
6523;SDS011;3295;38.928;-77.052;2022-08-25T13:04:28;11.53;;;7.50;;
6523;SDS011;3295;38.928;-77.052;2022-08-25T13:07:28;10.77;;;7.20;;
6523;SDS011;3295;38.928;-77.052;2022-08-25T13:10:19;15.03;;;7.87;;
6523;SDS011;3295;38.928;-77.052;2022-08-25T13:13:05;12.27;;;7.40;;
6523;SDS011;3295;38.928;-77.052;2022-08-25T13:15:39;12.17;;;7.93;;
6523;SDS011;3295;38.928;-77.052;2022-08-25T13:18:20;12.00;;;7.07;;
6523;SDS011;3295;38.928;-77.052;2022-08-25T13:20:49;11.37;;;7.23;;
6523;SDS011;3295;38.928;-77.052;2022-08-25T13:23:21;11.60;;;7.43;;
6523;SDS011;3295;38.928;-77.052;2022-08-25T13:25:54;11.87;;;7.93;;
6523;SDS011;3295;38.928;-77.052;2022-08-25T13:28:25;12.10;;;8.10;;
6523;SDS011;3295;38.928;-77.052;2022-08-25T13:30:55;12.03;;;7.63;;
6523;SDS011;3295;38.928;-77.052;2022-08-25T13:33:27;11.10;;;7.67;;
6523;SDS011;3295;38.928;-77.052;2022-08-25T13:35:55;12.30;;;7.67;;
6523;SDS011;3295;38.928;-77.052;2022-08-25T13:38:41;10.53;;;7.30;;
6523;SDS011;3295;38.928;-77.052;2022-08-25T13:41:15;12.83;;;7.40;;
6523;SDS011;3295;38.928;-77.052;2022-08-25T13:43:50;8.43;;;6.30;;
6523;SDS011;3295;38.928;-77.052;2022-08-25T13:46:20;9.17;;;6.10;;
6523;SDS011;3295;38.928;-77.052;2022-08-25T13:48:48;8.70;;;6.07;;
6523;SDS011;3295;38.928;-77.052;2022-08-25T13:51:20;9.03;;;6.20;;
6523;SDS011;3295;38.928;-77.052;2022-08-25T13:53:50;8.97;;;6.27;;
6523;SDS011;3295;38.928;-77.052;2022-08-25T13:56:26;8.40;;;5.90;;
6523;SDS011;3295;38.928;-77.052;2022-08-25T13:58:57;8.67;;;5.87;;
6523;SDS011;3295;38.928;-77.052;2022-08-25T14:01:28;7.97;;;5.77;;
6523;SDS011;3295;38.928;-77.052;2022-08-25T14:06:52;9.40;;;6.63;;
6523;SDS011;3295;38.928;-77.052;2022-08-25T14:09:36;8.17;;;6.07;;
6523;SDS011;3295;38.928;-77.052;2022-08-25T14:12:08;8.07;;;5.80;;
6523;SDS011;3295;38.928;-77.052;2022-08-25T14:14:57;9.67;;;5.90;;
6523;SDS011;3295;38.928;-77.052;2022-08-25T14:17:26;8.37;;;6.23;;
6523;SDS011;3295;38.928;-77.052;2022-08-25T14:19:54;10.63;;;6.03;;
6523;SDS011;3295;38.928;-77.052;2022-08-25T14:22:22;8.93;;;6.10;;
6523;SDS011;3295;38.928;-77.052;2022-08-25T14:24:51;8.63;;;5.93;;
6523;SDS011;3295;38.928;-77.052;2022-08-25T14:27:21;8.37;;;6.20;;
6523;SDS011;3295;38.928;-77.052;2022-08-25T14:29:49;8.17;;;6.00;;
6523;SDS011;3295;38.928;-77.052;2022-08-25T14:32:17;7.73;;;5.63;;
6523;SDS011;3295;38.928;-77.052;2022-08-25T14:34:47;8.10;;;5.93;;
6523;SDS011;3295;38.928;-77.052;2022-08-25T14:37:16;8.80;;;6.00;;
6523;SDS011;3295;38.928;-77.052;2022-08-25T14:39:45;8.50;;;6.03;;
6523;SDS011;3295;38.928;-77.052;2022-08-25T14:42:13;7.30;;;5.63;;
6523;SDS011;3295;38.928;-77.052;2022-08-25T14:44:42;9.00;;;6.13;;
6523;SDS011;3295;38.928;-77.052;2022-08-25T14:47:11;8.73;;;6.20;;
6523;SDS011;3295;38.928;-77.052;2022-08-25T14:49:39;8.87;;;6.20;;
6523;SDS011;3295;38.928;-77.052;2022-08-25T14:52:12;7.67;;;5.77;;
6523;SDS011;3295;38.928;-77.052;2022-08-25T14:54:45;8.10;;;6.10;;
6523;SDS011;3295;38.928;-77.052;2022-08-25T14:57:13;8.90;;;6.10;;
6523;SDS011;3295;38.928;-77.052;2022-08-25T14:59:40;9.47;;;6.43;;
6523;SDS011;3295;38.928;-77.052;2022-08-25T15:02:10;10.70;;;6.30;;
6523;SDS011;3295;38.928;-77.052;2022-08-25T15:04:42;9.67;;;5.80;;
6523;SDS011;3295;38.928;-77.052;2022-08-25T15:07:14;10.10;;;6.03;;
6523;SDS011;3295;38.928;-77.052;2022-08-25T15:09:55;10.77;;;6.67;;
6523;SDS011;3295;38.928;-77.052;2022-08-25T15:12:23;10.17;;;6.03;;
6523;SDS011;3295;38.928;-77.052;2022-08-25T15:14:52;8.20;;;6.10;;
6523;SDS011;3295;38.928;-77.052;2022-08-25T15:17:20;9.80;;;6.43;;
6523;SDS011;3295;38.928;-77.052;2022-08-25T15:19:48;10.50;;;6.30;;
6523;SDS011;3295;38.928;-77.052;2022-08-25T15:22:16;8.90;;;6.23;;
6523;SDS011;3295;38.928;-77.052;2022-08-25T15:24:45;15.27;;;6.72;;
6523;SDS011;3295;38.928;-77.052;2022-08-25T15:27:13;9.70;;;6.68;;